Time;durP1;ratioP1;P1;durP2;ratioP2;P2;SDS_P1;SDS_P2;PMS_P1;PMS_P2;Temp;Humidity;BMP_temperature;BMP_pressure;BME280_temperature;BME280_humidity;BME280_pressure;Samples;Min_cycle;Max_cycle;Signal;HPM_P1;HPM_P2
2021/08/10 00:02:39;;;;;;;2.57;1.70;;;;;;;;;;4989850;28;20221;-73
2021/08/10 00:05:49;;;;;;;3.37;1.80;;;;;;;;;;5001410;28;20229;-73
2021/08/10 00:08:53;;;;;;;2.00;1.70;;;;;;;;;;5013144;28;20522;-73
2021/08/10 00:11:58;;;;;;;1.53;1.33;;;;;;;;;;5013260;28;20537;-74
2021/08/10 00:15:04;;;;;;;2.50;1.50;;;;;;;;;;4989822;28;20190;-74
2021/08/10 00:18:08;;;;;;;4.30;1.87;;;;;;;;;;5013310;28;20197;-73
2021/08/10 00:21:13;;;;;;;2.83;2.00;;;;;;;;;;5013618;28;20190;-74
2021/08/10 00:24:17;;;;;;;2.53;1.67;;;;;;;;;;5016435;28;20220;-73
2021/08/10 00:27:22;;;;;;;3.83;1.73;;;;;;;;;;5016517;28;20201;-73
2021/08/10 00:30:26;;;;;;;4.80;1.80;;;;;;;;;;5016649;28;20633;-74
2021/08/10 00:33:31;;;;;;;5.20;2.03;;;;;;;;;;5004541;28;20225;-73
2021/08/10 00:36:38;;;;;;;5.23;2.00;;;;;;;;;;4993481;28;20625;-74
2021/08/10 00:39:42;;;;;;;5.50;1.77;;;;;;;;;;5004260;28;20197;-74
2021/08/10 00:42:47;;;;;;;5.60;1.60;;;;;;;;;;5004215;28;20221;-73
2021/08/10 00:45:51;;;;;;;3.30;1.93;;;;;;;;;;5004102;28;20206;-73
2021/08/10 00:48:55;;;;;;;4.23;1.80;;;;;;;;;;5004114;28;20190;-74
2021/08/10 00:52:01;;;;;;;5.07;2.23;;;;;;;;;;4993168;28;20186;-73
2021/08/10 00:55:08;;;;;;;2.00;1.53;;;;;;;;;;5003901;28;20205;-73
2021/08/10 00:58:14;;;;;;;6.83;2.50;;;;;;;;;;5004032;28;20301;-73
2021/08/10 01:01:19;;;;;;;5.00;1.97;;;;;;;;;;5003915;28;20182;-73
2021/08/10 01:04:23;;;;;;;2.63;2.00;;;;;;;;;;5004313;28;20553;-73
2021/08/10 01:07:44;;;;;;;3.93;2.57;;;;;;;;;;5016087;28;20182;-73
2021/08/10 01:11:26;;;;;;;5.20;2.03;;;;;;;;;;5003669;28;20182;-73
2021/08/10 01:14:45;;;;;;;3.73;2.20;;;;;;;;;;5003599;28;20217;-73
2021/08/10 01:18:08;;;;;;;6.43;2.33;;;;;;;;;;5003824;28;20202;-73
2021/08/10 01:21:25;;;;;;;3.57;1.80;;;;;;;;;;5003851;28;20185;-73
2021/08/10 01:24:43;;;;;;;7.27;2.30;;;;;;;;;;5003606;28;20696;-73
2021/08/10 01:28:14;;;;;;;3.57;1.70;;;;;;;;;;5015416;28;20189;-73
2021/08/10 01:31:28;;;;;;;4.27;1.90;;;;;;;;;;5003347;28;20517;-73
2021/08/10 01:34:41;;;;;;;3.07;2.20;;;;;;;;;;5002140;28;20225;-74
2021/08/10 01:38:02;;;;;;;2.37;1.97;;;;;;;;;;5003424;28;20186;-73
2021/08/10 01:41:07;;;;;;;3.73;2.03;;;;;;;;;;5003111;28;20549;-73
2021/08/10 01:44:14;;;;;;;3.17;2.30;;;;;;;;;;5003276;28;20209;-73
2021/08/10 01:47:19;;;;;;;4.07;2.57;;;;;;;;;;4991870;28;20173;-73
2021/08/10 01:50:24;;;;;;;3.07;2.30;;;;;;;;;;5003286;28;20517;-73
2021/08/10 01:53:43;;;;;;;2.50;2.20;;;;;;;;;;4991689;28;20217;-73
2021/08/10 01:56:47;;;;;;;5.13;2.60;;;;;;;;;;4991955;28;20648;-73
2021/08/10 01:59:54;;;;;;;3.33;2.17;;;;;;;;;;5002802;28;20186;-74
2021/08/10 02:03:04;;;;;;;5.57;2.20;;;;;;;;;;4991688;28;20684;-73
2021/08/10 02:06:14;;;;;;;4.57;2.57;;;;;;;;;;4991985;28;20221;-74
2021/08/10 02:09:21;;;;;;;5.63;2.33;;;;;;;;;;5003133;28;20185;-73
2021/08/10 02:12:27;;;;;;;3.30;2.53;;;;;;;;;;5002486;28;20213;-74
2021/08/10 02:15:35;;;;;;;2.93;2.30;;;;;;;;;;5002559;28;20182;-73
2021/08/10 02:18:42;;;;;;;6.00;2.50;;;;;;;;;;5002733;28;20178;-73
2021/08/10 02:22:12;;;;;;;4.73;2.00;;;;;;;;;;5002664;28;20182;-73
2021/08/10 02:25:25;;;;;;;3.87;2.60;;;;;;;;;;5002449;28;20213;-73
2021/08/10 02:28:42;;;;;;;5.63;2.40;;;;;;;;;;5002491;28;20617;-74
2021/08/10 02:31:50;;;;;;;3.20;2.23;;;;;;;;;;4991908;28;20185;-73
2021/08/10 02:34:58;;;;;;;4.30;2.40;;;;;;;;;;5002201;28;20510;-73
2021/08/10 02:38:07;;;;;;;4.10;2.73;;;;;;;;;;4991211;28;20189;-74
2021/08/10 02:41:16;;;;;;;5.73;2.27;;;;;;;;;;5002343;28;20181;-73
2021/08/10 02:44:29;;;;;;;3.60;2.00;;;;;;;;;;5001886;28;20217;-73
2021/08/10 02:47:36;;;;;;;3.70;2.33;;;;;;;;;;5002219;28;20182;-73
2021/08/10 02:50:41;;;;;;;3.43;2.20;;;;;;;;;;5001888;28;20181;-73
2021/08/10 02:53:46;;;;;;;4.47;2.13;;;;;;;;;;5001721;28;20213;-73
2021/08/10 02:57:02;;;;;;;4.93;2.47;;;;;;;;;;5002145;28;20514;-73
2021/08/10 03:00:11;;;;;;;3.83;2.27;;;;;;;;;;5001721;28;20197;-73
2021/08/10 03:03:18;;;;;;;2.57;2.13;;;;;;;;;;5001963;28;20217;-73
2021/08/10 03:06:23;;;;;;;3.57;2.20;;;;;;;;;;5001464;28;20201;-73
2021/08/10 03:09:28;;;;;;;5.33;2.37;;;;;;;;;;5001861;28;20181;-74
2021/08/10 03:12:36;;;;;;;3.47;2.57;;;;;;;;;;5029112;23;20185;-76
2021/08/10 03:15:41;;;;;;;6.83;2.50;;;;;;;;;;4990206;28;20212;-74
2021/08/10 03:18:50;;;;;;;3.57;2.60;;;;;;;;;;5001815;28;20185;-74
2021/08/10 03:21:56;;;;;;;4.07;2.67;;;;;;;;;;5001741;28;20174;-74
2021/08/10 03:25:04;;;;;;;7.30;2.57;;;;;;;;;;4970970;28;20541;-74
2021/08/10 03:28:12;;;;;;;3.63;3.00;;;;;;;;;;4982252;28;20174;-74
2021/08/10 03:31:17;;;;;;;5.27;3.10;;;;;;;;;;4993868;28;20641;-76
2021/08/10 03:34:24;;;;;;;3.20;2.73;;;;;;;;;;4981903;28;20213;-76
2021/08/10 03:37:29;;;;;;;5.63;3.10;;;;;;;;;;4981848;28;20175;-76
2021/08/10 03:40:36;;;;;;;4.67;3.00;;;;;;;;;;4982066;28;20178;-74
2021/08/10 03:43:42;;;;;;;4.23;2.70;;;;;;;;;;4981832;28;20218;-74
2021/08/10 03:46:48;;;;;;;8.20;3.13;;;;;;;;;;4981792;28;20226;-76
2021/08/10 03:49:53;;;;;;;3.23;2.50;;;;;;;;;;4981984;28;20186;-74
2021/08/10 03:52:58;;;;;;;5.10;2.70;;;;;;;;;;4999785;28;20213;-75
2021/08/10 03:56:03;;;;;;;6.63;2.60;;;;;;;;;;5001484;28;20178;-74
2021/08/10 03:59:17;;;;;;;2.50;2.30;;;;;;;;;;4988738;28;20193;-74
2021/08/10 04:02:25;;;;;;;4.93;3.03;;;;;;;;;;4988850;28;20194;-75
2021/08/10 04:05:29;;;;;;;4.83;2.70;;;;;;;;;;5009895;28;20201;-75
2021/08/10 04:08:37;;;;;;;4.10;3.07;;;;;;;;;;5005581;28;20185;-74
2021/08/10 04:11:44;;;;;;;3.40;2.63;;;;;;;;;;4984897;28;20194;-74
2021/08/10 04:14:55;;;;;;;4.97;2.90;;;;;;;;;;4996372;28;20641;-76
2021/08/10 04:18:02;;;;;;;3.23;2.63;;;;;;;;;;4974147;28;20197;-76
2021/08/10 04:21:07;;;;;;;4.53;2.57;;;;;;;;;;4985421;28;20178;-76
2021/08/10 04:24:11;;;;;;;4.53;2.57;;;;;;;;;;4985245;28;20213;-76
2021/08/10 04:27:17;;;;;;;4.10;2.60;;;;;;;;;;4984986;28;20202;-74
2021/08/10 04:30:25;;;;;;;3.37;2.50;;;;;;;;;;4996100;28;20187;-75
2021/08/10 04:33:29;;;;;;;5.53;2.77;;;;;;;;;;4996233;28;20222;-74
2021/08/10 04:36:35;;;;;;;3.07;2.73;;;;;;;;;;4985017;28;20178;-74
2021/08/10 04:39:40;;;;;;;3.60;2.30;;;;;;;;;;4985073;28;20636;-74
2021/08/10 04:42:48;;;;;;;2.67;2.13;;;;;;;;;;4995842;28;20218;-74
2021/08/10 04:45:53;;;;;;;9.77;2.47;;;;;;;;;;4989188;28;20550;-74
2021/08/10 04:48:57;;;;;;;3.67;2.30;;;;;;;;;;4996914;28;20522;-75
2021/08/10 04:52:02;;;;;;;3.43;2.40;;;;;;;;;;4996068;28;20182;-75
2021/08/10 04:55:07;;;;;;;3.37;2.20;;;;;;;;;;4995821;28;20178;-78
2021/08/10 04:58:13;;;;;;;5.27;2.47;;;;;;;;;;4984784;28;20190;-74
2021/08/10 05:01:17;;;;;;;3.90;2.63;;;;;;;;;;4995590;28;20186;-74
2021/08/10 05:04:24;;;;;;;3.33;2.50;;;;;;;;;;4995430;28;20217;-74
2021/08/10 05:07:29;;;;;;;9.33;2.83;;;;;;;;;;4995400;28;20206;-75
2021/08/10 05:10:33;;;;;;;5.53;2.70;;;;;;;;;;4995407;28;20182;-74
2021/08/10 05:13:39;;;;;;;4.87;2.73;;;;;;;;;;4984181;28;20558;-75
2021/08/10 05:16:45;;;;;;;5.03;2.97;;;;;;;;;;4987991;28;20182;-74
2021/08/10 05:19:52;;;;;;;4.90;2.83;;;;;;;;;;4984342;28;20182;-74
2021/08/10 05:22:58;;;;;;;3.67;2.77;;;;;;;;;;4989688;28;20213;-75
2021/08/10 05:26:02;;;;;;;6.13;2.93;;;;;;;;;;4995064;28;20206;-74
2021/08/10 05:29:11;;;;;;;4.23;2.60;;;;;;;;;;4995101;28;20183;-74
2021/08/10 05:32:15;;;;;;;5.57;2.63;;;;;;;;;;4996159;28;20241;-74
2021/08/10 05:35:19;;;;;;;9.80;3.00;;;;;;;;;;4984056;28;20182;-75
2021/08/10 05:38:24;;;;;;;5.57;3.13;;;;;;;;;;4994933;28;20179;-75
2021/08/10 05:41:29;;;;;;;7.53;3.27;;;;;;;;;;4962043;28;20182;-75
2021/08/10 05:44:37;;;;;;;5.00;3.40;;;;;;;;;;4994930;28;20221;-74
2021/08/10 05:47:42;;;;;;;3.97;2.67;;;;;;;;;;4995305;28;20202;-75
2021/08/10 05:50:47;;;;;;;3.73;3.00;;;;;;;;;;4965674;28;20182;-75
2021/08/10 05:53:55;;;;;;;7.17;3.30;;;;;;;;;;4994590;28;20230;-74
2021/08/10 05:56:59;;;;;;;6.70;3.97;;;;;;;;;;4994858;28;20198;-74
2021/08/10 06:00:04;;;;;;;5.13;2.83;;;;;;;;;;4994480;28;20201;-74
2021/08/10 06:03:14;;;;;;;7.53;3.90;;;;;;;;;;4995462;28;20218;-73
2021/08/10 06:06:18;;;;;;;10.33;3.43;;;;;;;;;;4994589;28;20206;-74
2021/08/10 06:09:25;;;;;;;3.97;3.40;;;;;;;;;;4994310;28;20186;-75
2021/08/10 06:12:29;;;;;;;3.83;3.13;;;;;;;;;;4994311;28;20182;-75
2021/08/10 06:15:33;;;;;;;4.10;3.70;;;;;;;;;;4994169;28;20190;-74
2021/08/10 06:18:41;;;;;;;3.73;3.37;;;;;;;;;;4994188;28;20182;-74
2021/08/10 06:21:54;;;;;;;6.03;3.87;;;;;;;;;;4983179;28;20522;-74
2021/08/10 06:25:04;;;;;;;5.20;3.03;;;;;;;;;;4982904;28;20194;-73
2021/08/10 06:28:09;;;;;;;3.43;3.00;;;;;;;;;;4982581;28;20202;-75
2021/08/10 06:31:15;;;;;;;5.60;3.10;;;;;;;;;;4982800;28;20190;-75
2021/08/10 06:34:21;;;;;;;3.13;2.83;;;;;;;;;;4982729;28;20213;-75
2021/08/10 06:37:25;;;;;;;7.27;2.80;;;;;;;;;;4982974;28;20178;-75
2021/08/10 06:40:30;;;;;;;5.33;3.67;;;;;;;;;;4960951;28;20186;-74
2021/08/10 06:43:34;;;;;;;4.57;3.53;;;;;;;;;;4993940;28;20221;-75
2021/08/10 06:46:56;;;;;;;4.83;3.03;;;;;;;;;;4994621;28;20214;-75
2021/08/10 06:50:05;;;;;;;3.40;3.00;;;;;;;;;;4993582;28;20202;-75
2021/08/10 06:53:09;;;;;;;4.93;2.90;;;;;;;;;;4993684;28;20680;-75
2021/08/10 06:56:23;;;;;;;6.47;2.70;;;;;;;;;;4993809;28;20186;-75
2021/08/10 06:59:33;;;;;;;4.43;2.63;;;;;;;;;;4993671;28;20206;-75
2021/08/10 07:02:40;;;;;;;3.33;2.60;;;;;;;;;;4993358;28;20221;-75
2021/08/10 07:05:44;;;;;;;5.30;2.43;;;;;;;;;;4993425;28;20186;-75
2021/08/10 07:08:53;;;;;;;8.80;3.33;;;;;;;;;;4994283;28;20170;-75
2021/08/10 07:11:57;;;;;;;4.30;2.70;;;;;;;;;;4987558;28;20178;-75
2021/08/10 07:15:01;;;;;;;4.87;2.70;;;;;;;;;;4982061;28;20510;-75
2021/08/10 07:18:06;;;;;;;2.77;2.20;;;;;;;;;;4993537;28;20170;-75
2021/08/10 07:21:11;;;;;;;4.03;2.80;;;;;;;;;;4982093;28;20182;-75
2021/08/10 07:24:20;;;;;;;3.43;2.20;;;;;;;;;;4993131;28;20222;-75
2021/08/10 07:27:25;;;;;;;5.40;2.67;;;;;;;;;;4993022;28;20202;-75
2021/08/10 07:30:29;;;;;;;5.00;2.40;;;;;;;;;;4993158;28;20182;-75
2021/08/10 07:33:36;;;;;;;9.83;2.60;;;;;;;;;;4985881;28;20226;-75
2021/08/10 07:36:42;;;;;;;4.83;2.30;;;;;;;;;;4997473;28;20186;-75
2021/08/10 07:39:46;;;;;;;3.97;2.53;;;;;;;;;;4997108;28;20178;-75
2021/08/10 07:42:56;;;;;;;5.03;2.90;;;;;;;;;;4991018;28;20566;-75
2021/08/10 07:46:00;;;;;;;4.00;2.40;;;;;;;;;;4985772;28;20186;-75
2021/08/10 07:49:04;;;;;;;5.73;2.33;;;;;;;;;;4997737;28;20170;-75
2021/08/10 07:52:08;;;;;;;4.93;2.57;;;;;;;;;;4996887;28;20187;-75
2021/08/10 07:55:12;;;;;;;2.53;2.30;;;;;;;;;;4985911;28;20182;-75
2021/08/10 07:58:17;;;;;;;3.43;2.13;;;;;;;;;;4985606;28;20629;-75
2021/08/10 08:01:21;;;;;;;4.87;2.40;;;;;;;;;;4974462;28;20633;-75
2021/08/10 08:04:25;;;;;;;3.23;2.07;;;;;;;;;;4996627;28;20217;-75
2021/08/10 08:07:31;;;;;;;4.77;2.40;;;;;;;;;;4974298;28;20210;-75
2021/08/10 08:10:35;;;;;;;4.17;2.30;;;;;;;;;;4996554;28;20192;-75
2021/08/10 08:13:39;;;;;;;3.47;2.23;;;;;;;;;;4985065;28;20227;-75
2021/08/10 08:16:44;;;;;;;4.37;1.90;;;;;;;;;;4985234;28;20189;-75
2021/08/10 08:19:48;;;;;;;4.47;2.37;;;;;;;;;;4974434;28;20183;-75
2021/08/10 08:22:54;;;;;;;4.10;2.30;;;;;;;;;;4996330;28;20562;-75
2021/08/10 08:26:00;;;;;;;4.00;2.00;;;;;;;;;;4985410;28;20185;-75
2021/08/10 08:29:04;;;;;;;4.00;1.93;;;;;;;;;;4996490;28;20187;-74
2021/08/10 08:32:09;;;;;;;5.37;1.80;;;;;;;;;;4996448;28;20630;-75
2021/08/10 08:35:14;;;;;;;5.30;2.27;;;;;;;;;;4963171;28;20182;-76
2021/08/10 08:38:20;;;;;;;4.13;1.80;;;;;;;;;;4963166;28;20179;-74
2021/08/10 08:41:25;;;;;;;3.93;2.00;;;;;;;;;;4995977;28;20183;-75
2021/08/10 08:44:35;;;;;;;5.70;2.00;;;;;;;;;;4984405;28;20218;-75
2021/08/10 08:47:49;;;;;;;3.20;1.70;;;;;;;;;;4996019;28;20214;-74
2021/08/10 08:50:56;;;;;;;3.57;1.83;;;;;;;;;;4995852;28;20190;-75
2021/08/10 08:54:02;;;;;;;3.07;1.80;;;;;;;;;;4984511;28;20226;-75
2021/08/10 08:57:10;;;;;;;2.38;1.60;;;;;;;;;;4984862;28;20182;-75
2021/08/10 09:00:16;;;;;;;1.80;1.40;;;;;;;;;;4973794;28;20638;-75
2021/08/10 09:03:22;;;;;;;3.47;1.55;;;;;;;;;;4984334;28;20214;-75
2021/08/10 09:06:26;;;;;;;5.40;1.88;;;;;;;;;;4984256;28;20198;-75
2021/08/10 09:09:30;;;;;;;4.35;1.80;;;;;;;;;;4995630;28;20170;-75
2021/08/10 09:12:54;;;;;;;5.82;1.70;;;;;;;;;;4984295;28;20227;-75
2021/08/10 09:16:02;;;;;;;2.38;1.73;;;;;;;;;;5046342;23;20230;-77
2021/08/10 09:19:08;;;;;;;5.80;2.03;;;;;;;;;;5045437;28;20184;-78
2021/08/10 09:22:26;;;;;;;3.67;1.83;;;;;;;;;;5056648;28;20186;-77
2021/08/10 09:25:34;;;;;;;2.65;2.00;;;;;;;;;;5035862;28;20192;-77
2021/08/10 09:28:44;;;;;;;3.58;2.10;;;;;;;;;;5025023;28;20210;-78
2021/08/10 09:31:48;;;;;;;4.30;1.98;;;;;;;;;;5036835;28;20186;-78
2021/08/10 09:35:17;;;;;;;5.35;1.80;;;;;;;;;;5037535;28;20186;-78
2021/08/10 09:38:21;;;;;;;2.20;1.70;;;;;;;;;;5023296;28;20192;-78
2021/08/10 09:41:27;;;;;;;3.78;1.77;;;;;;;;;;5037148;28;20192;-78
2021/08/10 09:44:33;;;;;;;4.43;2.13;;;;;;;;;;5037127;28;20224;-79
2021/08/10 09:47:41;;;;;;;8.23;2.10;;;;;;;;;;5026042;28;20213;-79
2021/08/10 09:51:06;;;;;;;3.20;1.80;;;;;;;;;;5015036;28;20193;-79
2021/08/10 09:54:12;;;;;;;3.85;1.73;;;;;;;;;;5032644;28;20556;-79
2021/08/10 09:57:16;;;;;;;3.03;1.77;;;;;;;;;;5026620;28;20181;-79
2021/08/10 10:00:50;;;;;;;2.95;2.10;;;;;;;;;;5022789;28;20181;-79
2021/08/10 10:04:08;;;;;;;5.80;2.03;;;;;;;;;;5026441;28;20221;-79
2021/08/10 10:07:15;;;;;;;2.85;1.70;;;;;;;;;;5037634;28;20185;-79
2021/08/10 10:10:32;;;;;;;4.10;1.77;;;;;;;;;;5026381;28;20186;-79
2021/08/10 10:13:36;;;;;;;2.63;1.90;;;;;;;;;;5024819;28;20221;-79
2021/08/10 10:16:44;;;;;;;5.20;2.00;;;;;;;;;;5036474;28;20201;-79
2021/08/10 10:19:49;;;;;;;2.33;1.95;;;;;;;;;;5037947;28;20652;-79
2021/08/10 10:22:53;;;;;;;2.35;1.70;;;;;;;;;;5025623;28;20213;-79
2021/08/10 10:26:00;;;;;;;5.25;2.28;;;;;;;;;;5038011;28;20625;-79
2021/08/10 10:29:05;;;;;;;6.43;1.70;;;;;;;;;;5037865;28;20201;-79
2021/08/10 10:32:09;;;;;;;3.22;1.98;;;;;;;;;;5034785;28;20181;-77
2021/08/10 10:35:17;;;;;;;2.70;1.85;;;;;;;;;;5022722;28;20632;-77
2021/08/10 10:38:21;;;;;;;2.53;1.90;;;;;;;;;;5034505;28;20185;-78
2021/08/10 10:41:31;;;;;;;2.53;1.70;;;;;;;;;;5035286;28;20230;-78
2021/08/10 10:44:36;;;;;;;3.00;1.88;;;;;;;;;;5034883;28;20209;-77
2021/08/10 10:47:41;;;;;;;4.68;2.17;;;;;;;;;;5023619;28;20201;-78
2021/08/10 10:51:08;;;;;;;4.60;2.15;;;;;;;;;;5023651;28;20184;-78
2021/08/10 10:54:22;;;;;;;5.80;2.10;;;;;;;;;;5034703;28;20217;-78
2021/08/10 10:57:33;;;;;;;3.70;1.88;;;;;;;;;;5035158;28;20185;-78
2021/08/10 11:00:37;;;;;;;2.88;1.90;;;;;;;;;;5034845;28;20193;-77
2021/08/10 11:04:01;;;;;;;2.67;2.03;;;;;;;;;;5022332;28;20217;-78
2021/08/10 11:07:47;;;;;;;4.07;1.85;;;;;;;;;;5023749;28;20181;-78
2021/08/10 11:10:52;;;;;;;2.92;1.88;;;;;;;;;;5031590;28;20652;-78
2021/08/10 11:13:57;;;;;;;3.63;2.20;;;;;;;;;;5029368;28;20583;-79
2021/08/10 11:17:07;;;;;;;3.08;1.92;;;;;;;;;;5018286;28;20189;-79
2021/08/10 11:20:26;;;;;;;3.28;1.80;;;;;;;;;;5034342;28;20188;-78
2021/08/10 11:23:35;;;;;;;7.93;2.38;;;;;;;;;;5004198;28;20217;-79
2021/08/10 11:26:40;;;;;;;4.90;2.10;;;;;;;;;;5006799;28;20200;-79
2021/08/10 11:29:45;;;;;;;2.67;1.55;;;;;;;;;;5021040;28;20539;-78
2021/08/10 11:32:50;;;;;;;2.80;1.85;;;;;;;;;;5011808;28;20221;-79
2021/08/10 11:35:55;;;;;;;5.43;2.42;;;;;;;;;;5035759;28;20185;-79
2021/08/10 11:39:02;;;;;;;3.13;2.10;;;;;;;;;;5012651;28;20173;-78
2021/08/10 11:42:16;;;;;;;6.15;2.05;;;;;;;;;;5020799;28;20190;-78
2021/08/10 11:45:23;;;;;;;3.30;1.90;;;;;;;;;;5014864;28;20197;-79
2021/08/10 11:48:41;;;;;;;3.33;2.25;;;;;;;;;;5017896;28;20209;-77
2021/08/10 11:51:47;;;;;;;2.88;1.90;;;;;;;;;;5020670;28;20197;-79
2021/08/10 11:54:58;;;;;;;5.20;2.22;;;;;;;;;;5016953;28;20629;-78
2021/08/10 11:58:07;;;;;;;3.83;2.05;;;;;;;;;;5023114;28;20664;-78
2021/08/10 12:01:13;;;;;;;3.17;2.20;;;;;;;;;;5005825;28;20546;-79
2021/08/10 12:04:20;;;;;;;2.97;1.92;;;;;;;;;;5032208;28;20225;-79
2021/08/10 12:07:25;;;;;;;3.40;1.98;;;;;;;;;;5011135;28;20672;-79
2021/08/10 12:10:34;;;;;;;3.05;2.25;;;;;;;;;;5017617;28;20630;-80
2021/08/10 12:13:38;;;;;;;3.55;1.73;;;;;;;;;;4985376;28;20226;-78
2021/08/10 12:17:03;;;;;;;4.55;2.00;;;;;;;;;;5013104;28;20217;-79
2021/08/10 12:20:13;;;;;;;4.70;2.22;;;;;;;;;;5008989;28;20621;-78
2021/08/10 12:23:17;;;;;;;5.70;2.17;;;;;;;;;;5019314;28;20217;-79
2021/08/10 12:26:22;;;;;;;4.57;2.17;;;;;;;;;;5011604;28;20189;-80
2021/08/10 12:29:37;;;;;;;6.10;1.90;;;;;;;;;;4999687;28;20205;-79
2021/08/10 12:32:41;;;;;;;5.43;2.20;;;;;;;;;;5016752;28;20688;-78
2021/08/10 12:36:00;;;;;;;2.55;2.05;;;;;;;;;;5029117;28;20189;-79
2021/08/10 12:39:04;;;;;;;2.50;1.92;;;;;;;;;;4999819;28;20629;-78
2021/08/10 12:42:09;;;;;;;2.90;2.00;;;;;;;;;;5023222;28;20189;-78
2021/08/10 12:45:13;;;;;;;4.68;2.00;;;;;;;;;;5032455;28;20209;-78
2021/08/10 12:48:25;;;;;;;4.10;2.22;;;;;;;;;;5020030;28;20222;-78
2021/08/10 12:52:07;;;;;;;4.28;1.98;;;;;;;;;;5011838;28;20186;-78
2021/08/10 12:55:11;;;;;;;3.92;1.80;;;;;;;;;;5016174;28;20185;-79
2021/08/10 12:58:16;;;;;;;6.10;2.38;;;;;;;;;;5013296;28;20198;-79
2021/08/10 13:01:21;;;;;;;2.70;2.10;;;;;;;;;;5028667;28;20186;-79
2021/08/10 13:04:25;;;;;;;2.53;1.80;;;;;;;;;;5016098;28;20224;-79
2021/08/10 13:07:29;;;;;;;3.35;2.05;;;;;;;;;;5038969;28;20197;-79
2021/08/10 13:10:35;;;;;;;3.08;1.98;;;;;;;;;;5012092;28;20186;-80
2021/08/10 13:13:39;;;;;;;5.00;1.90;;;;;;;;;;5028407;28;20224;-80
2021/08/10 13:16:43;;;;;;;3.45;1.80;;;;;;;;;;5035281;28;20212;-80
2021/08/10 13:20:14;;;;;;;4.25;1.95;;;;;;;;;;5020203;28;20186;-79
2021/08/10 13:23:18;;;;;;;5.20;1.92;;;;;;;;;;4997676;28;20233;-79
2021/08/10 13:26:22;;;;;;;2.95;1.90;;;;;;;;;;5026661;28;20193;-79
2021/08/10 13:29:37;;;;;;;3.55;2.50;;;;;;;;;;5038595;28;20679;-79
2021/08/10 13:32:41;;;;;;;2.38;2.00;;;;;;;;;;4997626;28;20234;-78
2021/08/10 13:35:47;;;;;;;2.67;2.17;;;;;;;;;;5000001;28;20201;-78
2021/08/10 13:38:52;;;;;;;5.20;2.22;;;;;;;;;;5003527;28;20182;-79
2021/08/10 13:41:56;;;;;;;7.28;2.25;;;;;;;;;;5020582;28;20181;-81
2021/08/10 13:45:00;;;;;;;4.00;2.10;;;;;;;;;;5019957;28;20209;-77
2021/08/10 13:48:05;;;;;;;2.35;2.00;;;;;;;;;;5007756;28;20197;-78
2021/08/10 13:51:09;;;;;;;2.42;1.80;;;;;;;;;;5027133;28;20732;-78
2021/08/10 13:54:13;;;;;;;4.45;2.33;;;;;;;;;;5002489;28;20547;-79
2021/08/10 13:57:17;;;;;;;3.17;2.03;;;;;;;;;;5013993;28;20193;-79
2021/08/10 14:00:22;;;;;;;3.78;1.95;;;;;;;;;;5012859;28;20201;-78
2021/08/10 14:03:26;;;;;;;2.42;1.80;;;;;;;;;;5003352;28;20213;-78
2021/08/10 14:06:45;;;;;;;4.97;1.95;;;;;;;;;;5000204;28;20182;-78
2021/08/10 14:09:49;;;;;;;2.95;2.30;;;;;;;;;;4991247;28;20218;-77
2021/08/10 14:12:53;;;;;;;4.40;2.00;;;;;;;;;;4992375;28;21154;-79
2021/08/10 14:15:57;;;;;;;4.70;2.50;;;;;;;;;;5021846;28;20209;-78
2021/08/10 14:19:02;;;;;;;4.35;2.10;;;;;;;;;;5012479;28;20173;-77
2021/08/10 14:22:06;;;;;;;3.35;2.15;;;;;;;;;;5015277;28;20201;-78
2021/08/10 14:25:11;;;;;;;5.78;2.10;;;;;;;;;;5032729;28;20189;-78
2021/08/10 14:28:16;;;;;;;3.55;1.85;;;;;;;;;;5019288;28;20189;-79
2021/08/10 14:31:20;;;;;;;5.55;1.92;;;;;;;;;;5032784;28;20591;-78
2021/08/10 14:34:23;;;;;;;4.28;2.00;;;;;;;;;;5032593;28;20220;-78
2021/08/10 14:37:27;;;;;;;8.55;2.45;;;;;;;;;;5016701;28;20519;-78
2021/08/10 14:40:32;;;;;;;4.65;2.08;;;;;;;;;;4988966;28;20642;-78
2021/08/10 14:43:36;;;;;;;2.35;1.92;;;;;;;;;;5001433;28;20708;-78
2021/08/10 14:46:44;;;;;;;3.17;2.00;;;;;;;;;;5020066;28;20197;-78
2021/08/10 14:49:48;;;;;;;3.22;2.00;;;;;;;;;;5019749;28;20209;-78
2021/08/10 14:52:52;;;;;;;7.53;2.10;;;;;;;;;;5032063;28;20229;-78
2021/08/10 14:55:57;;;;;;;3.10;2.10;;;;;;;;;;5030283;28;20177;-78
2021/08/10 14:59:01;;;;;;;6.00;2.30;;;;;;;;;;5014117;28;20189;-79
2021/08/10 15:02:05;;;;;;;3.72;1.95;;;;;;;;;;4991973;28;20178;-78
2021/08/10 15:05:10;;;;;;;3.05;2.03;;;;;;;;;;4993279;28;20183;-78
2021/08/10 15:08:14;;;;;;;2.72;2.15;;;;;;;;;;5000091;28;20181;-77
2021/08/10 15:11:19;;;;;;;4.00;1.55;;;;;;;;;;5013826;28;20529;-78
2021/08/10 15:14:23;;;;;;;5.32;2.05;;;;;;;;;;4997303;28;20735;-77
2021/08/10 15:17:27;;;;;;;5.97;2.17;;;;;;;;;;5018086;28;20690;-77
2021/08/10 15:20:31;;;;;;;4.50;2.22;;;;;;;;;;5012431;28;20194;-78
2021/08/10 15:23:35;;;;;;;2.70;1.80;;;;;;;;;;5012630;28;20217;-77
2021/08/10 15:26:39;;;;;;;4.15;1.92;;;;;;;;;;5009484;28;20201;-77
2021/08/10 15:29:44;;;;;;;3.90;2.05;;;;;;;;;;4999540;28;20210;-78
2021/08/10 15:32:49;;;;;;;6.32;1.92;;;;;;;;;;5007087;28;20229;-77
2021/08/10 15:35:53;;;;;;;3.72;1.90;;;;;;;;;;5000073;28;20178;-78
2021/08/10 15:38:57;;;;;;;6.70;2.30;;;;;;;;;;5019259;28;20217;-78
2021/08/10 15:42:01;;;;;;;5.18;1.95;;;;;;;;;;5020857;28;20201;-78
2021/08/10 15:45:07;;;;;;;2.58;1.98;;;;;;;;;;5008553;28;20616;-78
2021/08/10 15:48:12;;;;;;;2.65;1.60;;;;;;;;;;5021113;28;20197;-78
2021/08/10 15:51:16;;;;;;;3.28;1.98;;;;;;;;;;5012112;28;20517;-78
2021/08/10 15:54:20;;;;;;;6.70;2.30;;;;;;;;;;5018216;28;20221;-78
2021/08/10 15:57:24;;;;;;;5.63;2.58;;;;;;;;;;5024506;28;20199;-77
2021/08/10 16:00:28;;;;;;;3.83;2.25;;;;;;;;;;5002283;28;20181;-77
2021/08/10 16:03:32;;;;;;;2.28;2.05;;;;;;;;;;5021100;28;20217;-78
2021/08/10 16:06:38;;;;;;;5.90;2.13;;;;;;;;;;5018114;28;20195;-79
2021/08/10 16:09:42;;;;;;;5.43;2.25;;;;;;;;;;5028488;28;20686;-78
2021/08/10 16:12:46;;;;;;;6.18;2.42;;;;;;;;;;5005305;28;20229;-80
2021/08/10 16:15:51;;;;;;;5.18;1.98;;;;;;;;;;5016841;28;20207;-78
2021/08/10 16:18:55;;;;;;;4.20;2.20;;;;;;;;;;5023719;28;20187;-78
2021/08/10 16:22:00;;;;;;;5.15;2.45;;;;;;;;;;5024359;28;20809;-78
2021/08/10 16:25:05;;;;;;;5.20;2.05;;;;;;;;;;5037054;28;20661;-78
2021/08/10 16:28:09;;;;;;;6.20;2.40;;;;;;;;;;5035531;28;20544;-78
2021/08/10 16:31:13;;;;;;;7.72;2.20;;;;;;;;;;5005122;28;20695;-78
2021/08/10 16:34:17;;;;;;;7.95;2.22;;;;;;;;;;5004750;28;20234;-78
2021/08/10 16:37:21;;;;;;;5.53;2.50;;;;;;;;;;5004394;28;20219;-78
2021/08/10 16:40:26;;;;;;;4.25;2.22;;;;;;;;;;5014525;28;20771;-78
2021/08/10 16:43:30;;;;;;;3.10;2.00;;;;;;;;;;5003823;28;20226;-78
2021/08/10 16:46:34;;;;;;;5.45;2.20;;;;;;;;;;5030368;28;20194;-78
2021/08/10 16:49:38;;;;;;;8.35;2.75;;;;;;;;;;5029388;28;20209;-78
2021/08/10 16:52:42;;;;;;;5.72;2.53;;;;;;;;;;5021448;28;20226;-78
2021/08/10 16:55:47;;;;;;;4.05;2.50;;;;;;;;;;5022809;28;20196;-78
2021/08/10 16:58:51;;;;;;;7.10;2.40;;;;;;;;;;5035209;28;20197;-79
2021/08/10 17:01:56;;;;;;;5.60;2.47;;;;;;;;;;5029755;28;20189;-78
2021/08/10 17:05:00;;;;;;;4.15;2.10;;;;;;;;;;4982120;28;20184;-78
2021/08/10 17:08:06;;;;;;;5.00;2.40;;;;;;;;;;5020480;28;20201;-78
2021/08/10 17:11:10;;;;;;;9.03;2.67;;;;;;;;;;5033847;28;20571;-78
2021/08/10 17:14:14;;;;;;;4.80;2.40;;;;;;;;;;5037863;22;20208;-74
2021/08/10 17:17:19;;;;;;;4.30;2.43;;;;;;;;;;5055637;28;20622;-74
2021/08/10 17:20:23;;;;;;;3.80;2.40;;;;;;;;;;5055592;28;20172;-74
2021/08/10 17:23:32;;;;;;;5.50;2.40;;;;;;;;;;5043142;28;20218;-74
2021/08/10 17:26:41;;;;;;;5.67;2.50;;;;;;;;;;5055166;28;20195;-74
2021/08/10 17:29:46;;;;;;;8.47;2.33;;;;;;;;;;5055247;28;20556;-74
2021/08/10 17:32:56;;;;;;;4.63;2.70;;;;;;;;;;5055271;28;20592;-73
2021/08/10 17:36:00;;;;;;;4.63;2.77;;;;;;;;;;5055080;28;20541;-74
2021/08/10 17:39:04;;;;;;;6.90;2.50;;;;;;;;;;5055162;28;20528;-74
2021/08/10 17:42:08;;;;;;;7.10;2.57;;;;;;;;;;5025745;28;20190;-73
2021/08/10 17:45:12;;;;;;;3.53;2.17;;;;;;;;;;5038397;28;20214;-73
2021/08/10 17:48:17;;;;;;;5.17;2.60;;;;;;;;;;5039278;28;20195;-73
2021/08/10 17:51:22;;;;;;;7.13;2.77;;;;;;;;;;5051291;28;20205;-73
2021/08/10 17:54:26;;;;;;;7.43;2.57;;;;;;;;;;5055835;23;20217;-73
2021/08/10 17:57:30;;;;;;;6.80;2.70;;;;;;;;;;5022493;28;20187;-74
2021/08/10 18:00:34;;;;;;;8.10;2.73;;;;;;;;;;5051276;28;20658;-74
2021/08/10 18:03:38;;;;;;;7.60;3.20;;;;;;;;;;5050959;28;20212;-74
2021/08/10 18:06:43;;;;;;;9.93;2.83;;;;;;;;;;5020796;28;20193;-73
2021/08/10 18:09:47;;;;;;;4.50;2.50;;;;;;;;;;5031191;28;20180;-73
2021/08/10 18:12:51;;;;;;;4.70;2.30;;;;;;;;;;5030757;28;20226;-73
2021/08/10 18:15:55;;;;;;;5.53;2.80;;;;;;;;;;5025759;28;20191;-73
2021/08/10 18:18:59;;;;;;;5.73;2.90;;;;;;;;;;5030550;28;20534;-73
2021/08/10 18:22:04;;;;;;;5.70;2.40;;;;;;;;;;5009160;28;20197;-73
2021/08/10 18:25:09;;;;;;;4.33;3.10;;;;;;;;;;5039619;28;20192;-73
2021/08/10 18:28:13;;;;;;;8.93;3.00;;;;;;;;;;4998889;28;20547;-74
2021/08/10 18:31:18;;;;;;;5.17;2.63;;;;;;;;;;4990968;28;20205;-73
2021/08/10 18:34:24;;;;;;;8.83;3.13;;;;;;;;;;5026982;28;20223;-73
2021/08/10 18:37:28;;;;;;;8.00;3.07;;;;;;;;;;5041308;28;20191;-74
2021/08/10 18:40:33;;;;;;;7.73;3.10;;;;;;;;;;5038327;28;20180;-74
2021/08/10 18:43:37;;;;;;;4.73;2.70;;;;;;;;;;5031471;28;20224;-74